Time;durP1;ratioP1;P1;durP2;ratioP2;P2;SDS_P1;SDS_P2;PMS_P1;PMS_P2;Temp;Humidity;BMP_temperature;BMP_pressure;BME280_temperature;BME280_humidity;BME280_pressure;Samples;Min_cycle;Max_cycle;Signal;HPM_P1;HPM_P2
2022/05/17 00:00:14;;;;;;;;;;;;;;;12.89;100.00;99889.83;1740392;83;20163;-75
2022/05/17 00:02:42;;;;;;;;;;;;;;;12.88;100.00;99891.38;1740515;83;20125;-75
2022/05/17 00:05:09;;;;;;;;;;;;;;;12.86;100.00;99896.16;1740695;83;20120;-76
2022/05/17 00:07:37;;;;;;;;;;;;;;;12.84;100.00;99894.16;1739830;83;20129;-75
2022/05/17 00:10:05;;;;;;;;;;;;;;;12.80;100.00;99880.62;1739726;83;20124;-74
2022/05/17 00:12:34;;;;;;;;;;;;;;;12.80;100.00;99884.19;1740709;83;20191;-76
2022/05/17 00:15:01;;;;;;;;;;;;;;;12.77;100.00;99882.38;1740373;81;20121;-75
2022/05/17 00:17:28;;;;;;;;;;;;;;;12.75;100.00;99888.48;1740416;83;20169;-76
2022/05/17 00:19:55;;;;;;;;;;;;;;;12.73;100.00;99894.95;1740997;83;20136;-75
2022/05/17 00:22:22;;;;;;;;;;;;;;;12.73;100.00;99904.45;1740408;83;20128;-74
2022/05/17 00:24:48;;;;;;;;;;;;;;;12.71;100.00;99892.09;1740135;83;20120;-76
2022/05/17 00:27:15;;;;;;;;;;;;;;;12.68;100.00;99886.53;1740299;83;20128;-74
2022/05/17 00:29:42;;;;;;;;;;;;;;;12.67;100.00;99890.27;1709534;83;20148;-75
2022/05/17 00:32:11;;;;;;;;;;;;;;;12.65;100.00;99892.33;1740180;83;20129;-75
2022/05/17 00:34:38;;;;;;;;;;;;;;;12.64;100.00;99895.23;1709257;83;20136;-74
2022/05/17 00:37:05;;;;;;;;;;;;;;;12.63;100.00;99893.56;1740360;83;20149;-77
2022/05/17 00:39:32;;;;;;;;;;;;;;;12.61;100.00;99891.56;1740345;83;20144;-75
2022/05/17 00:42:05;;;;;;;;;;;;;;;12.59;100.00;99895.81;1740511;83;20121;-75
2022/05/17 00:44:45;;;;;;;;;;;;;;;12.58;100.00;99891.92;1740417;83;20132;-75
2022/05/17 00:47:31;;;;;;;;;;;;;;;12.55;100.00;99894.48;1740482;83;20152;-77
2022/05/17 00:50:01;;;;;;;;;;;;;;;12.53;100.00;99892.47;1709427;83;20136;-75
2022/05/17 00:52:33;;;;;;;;;;;;;;;12.49;100.00;99892.01;1740432;83;20152;-76
2022/05/17 00:55:05;;;;;;;;;;;;;;;12.46;100.00;99886.95;1740086;83;20124;-75
2022/05/17 00:57:35;;;;;;;;;;;;;;;12.44;100.00;99894.96;1740163;83;20124;-76
2022/05/17 01:00:06;;;;;;;;;;;;;;;12.42;100.00;99895.67;1740650;83;20144;-74
2022/05/17 01:02:34;;;;;;;;;;;;;;;12.40;100.00;99892.30;1740263;83;20152;-75
2022/05/17 01:05:01;;;;;;;;;;;;;;;12.36;100.00;99889.13;1740503;83;20108;-75
2022/05/17 01:07:31;;;;;;;;;;;;;;;12.33;100.00;99893.03;1740150;83;20193;-75
2022/05/17 01:09:58;;;;;;;;;;;;;;;12.32;100.00;99898.64;1740315;83;20128;-76
2022/05/17 01:12:25;;;;;;;;;;;;;;;12.29;100.00;99899.86;1740258;83;20132;-76
2022/05/17 01:14:58;;;;;;;;;;;;;;;12.27;100.00;99901.92;1737116;81;20160;-75
2022/05/17 01:17:25;;;;;;;;;;;;;;;12.24;100.00;99900.09;1735585;83;20136;-75
2022/05/17 01:19:53;;;;;;;;;;;;;;;12.22;100.00;99907.58;1735495;83;20125;-76
2022/05/17 01:22:19;;;;;;;;;;;;;;;12.20;100.00;99900.12;1735855;83;20171;-76
2022/05/17 01:24:47;;;;;;;;;;;;;;;12.15;100.00;99900.17;1735345;83;20425;-77
2022/05/17 01:27:20;;;;;;;;;;;;;;;12.12;100.00;99902.41;1735625;83;20156;-74
2022/05/17 01:29:47;;;;;;;;;;;;;;;12.09;100.00;99901.41;1733027;83;20128;-73
2022/05/17 01:32:14;;;;;;;;;;;;;;;12.05;100.00;99894.69;1714855;83;20137;-76
2022/05/17 01:34:42;;;;;;;;;;;;;;;12.00;100.00;99891.16;1735348;83;20153;-75
2022/05/17 01:37:09;;;;;;;;;;;;;;;11.96;100.00;99886.63;1735025;83;20161;-74
2022/05/17 01:39:36;;;;;;;;;;;;;;;11.93;100.00;99887.51;1735193;83;20148;-76
2022/05/17 01:42:04;;;;;;;;;;;;;;;11.89;100.00;99892.94;1735262;83;20286;-76
2022/05/17 01:44:31;;;;;;;;;;;;;;;11.83;100.00;99887.75;1735738;83;20136;-75
2022/05/17 01:46:58;;;;;;;;;;;;;;;11.77;100.00;99892.53;1735686;83;20118;-74
2022/05/17 01:49:25;;;;;;;;;;;;;;;11.74;100.00;99899.69;1735692;83;20449;-77
2022/05/17 01:51:52;;;;;;;;;;;;;;;11.71;100.00;99891.92;1735552;83;20132;-75
2022/05/17 01:54:18;;;;;;;;;;;;;;;11.67;100.00;99898.21;1735490;83;20125;-74
2022/05/17 01:56:45;;;;;;;;;;;;;;;11.64;100.00;99892.31;1735077;83;20164;-76
2022/05/17 01:59:15;;;;;;;;;;;;;;;11.62;100.00;99896.55;1715262;83;20140;-75
2022/05/17 02:01:43;;;;;;;;;;;;;;;11.60;100.00;99897.25;1735190;83;20137;-75
2022/05/17 02:04:12;;;;;;;;;;;;;;;11.59;100.00;99893.68;1735638;83;20160;-73
2022/05/17 02:06:39;;;;;;;;;;;;;;;11.58;100.00;99897.43;1735842;83;20440;-73
2022/05/17 02:09:06;;;;;;;;;;;;;;;11.56;100.00;99900.84;1736133;83;20121;-75
2022/05/17 02:11:35;;;;;;;;;;;;;;;11.55;100.00;99914.03;1735458;83;20429;-74
2022/05/17 02:14:02;;;;;;;;;;;;;;;11.55;100.00;99909.97;1736198;83;20153;-75
2022/05/17 02:16:29;;;;;;;;;;;;;;;11.54;100.00;99915.08;1739808;83;20416;-76
2022/05/17 02:18:56;;;;;;;;;;;;;;;11.55;100.00;99911.33;1739998;83;20137;-76
2022/05/17 02:21:23;;;;;;;;;;;;;;;11.56;100.00;99912.16;1740120;83;20176;-75
2022/05/17 02:23:50;;;;;;;;;;;;;;;11.55;100.00;99914.55;1740309;83;20989;-76
2022/05/17 02:26:17;;;;;;;;;;;;;;;11.54;100.00;99919.63;1740160;83;20433;-75
2022/05/17 02:28:44;;;;;;;;;;;;;;;11.50;100.00;99923.20;1740116;83;20160;-76
2022/05/17 02:31:15;;;;;;;;;;;;;;;11.48;100.00;99924.42;1740195;83;20124;-75
2022/05/17 02:33:43;;;;;;;;;;;;;;;11.47;100.00;99928.14;1740227;83;20124;-76
2022/05/17 02:36:10;;;;;;;;;;;;;;;11.46;100.00;99922.41;1740131;83;20132;-74
2022/05/17 02:38:37;;;;;;;;;;;;;;;11.46;100.00;99916.99;1740359;83;20153;-76
2022/05/17 02:41:04;;;;;;;;;;;;;;;11.47;100.00;99920.02;1740156;83;20504;-76
2022/05/17 02:43:31;;;;;;;;;;;;;;;11.48;100.00;99920.36;1740519;83;20157;-76
2022/05/17 02:45:57;;;;;;;;;;;;;;;11.49;100.00;99922.02;1740454;83;20140;-75
2022/05/17 02:48:24;;;;;;;;;;;;;;;11.50;100.00;99922.38;1740075;83;20440;-76
2022/05/17 02:50:53;;;;;;;;;;;;;;;11.51;100.00;99926.25;1740173;83;20148;-75
2022/05/17 02:53:21;;;;;;;;;;;;;;;11.52;100.00;99923.03;1740388;83;20124;-75
2022/05/17 02:55:50;;;;;;;;;;;;;;;11.51;100.00;99924.03;1740052;83;20158;-75
2022/05/17 02:58:17;;;;;;;;;;;;;;;11.48;100.00;99919.84;1740311;83;20144;-75
2022/05/17 03:00:45;;;;;;;;;;;;;;;11.48;100.00;99927.13;1739778;83;20133;-76
2022/05/17 03:03:12;;;;;;;;;;;;;;;11.47;100.00;99922.20;1740139;83;20133;-75
2022/05/17 03:05:39;;;;;;;;;;;;;;;11.49;100.00;99922.89;1739957;83;20132;-75
2022/05/17 03:08:07;;;;;;;;;;;;;;;11.53;100.00;99931.50;1740076;83;20156;-75
2022/05/17 03:10:33;;;;;;;;;;;;;;;11.57;100.00;99936.88;1740230;83;20180;-76
2022/05/17 03:13:01;;;;;;;;;;;;;;;11.59;100.00;99935.66;1740400;83;20132;-74
2022/05/17 03:15:28;;;;;;;;;;;;;;;11.61;100.00;99929.23;1736795;83;20137;-74
2022/05/17 03:17:55;;;;;;;;;;;;;;;11.61;100.00;99937.35;1735506;83;20454;-74
2022/05/17 03:20:22;;;;;;;;;;;;;;;11.61;100.00;99930.06;1735738;83;20129;-74
2022/05/17 03:22:50;;;;;;;;;;;;;;;11.60;100.00;99933.81;1735717;83;20117;-76
2022/05/17 03:25:17;;;;;;;;;;;;;;;11.61;100.00;99930.58;1735662;83;20157;-74
2022/05/17 03:27:44;;;;;;;;;;;;;;;11.61;100.00;99932.77;1735621;83;20160;-75
2022/05/17 03:30:12;;;;;;;;;;;;;;;11.63;100.00;99928.02;1735605;83;20125;-74
2022/05/17 03:32:38;;;;;;;;;;;;;;;11.65;100.00;99933.25;1735787;83;20136;-76
2022/05/17 03:35:07;;;;;;;;;;;;;;;11.68;100.00;99928.84;1736106;83;20148;-75
2022/05/17 03:37:33;;;;;;;;;;;;;;;11.71;100.00;99927.13;1736196;83;20144;-75
2022/05/17 03:40:00;;;;;;;;;;;;;;;11.75;100.00;99927.92;1735613;83;20124;-76
2022/05/17 03:42:27;;;;;;;;;;;;;;;11.83;100.00;99926.16;1735415;83;20125;-73
2022/05/17 03:44:54;;;;;;;;;;;;;;;11.87;100.00;99929.70;1735213;83;20148;-74
2022/05/17 03:47:21;;;;;;;;;;;;;;;11.92;100.00;99931.91;1735484;83;20125;-75
2022/05/17 03:49:48;;;;;;;;;;;;;;;11.97;100.00;99932.20;1735494;83;20151;-75
2022/05/17 03:52:15;;;;;;;;;;;;;;;12.06;100.00;99923.48;1735385;83;20121;-75
2022/05/17 03:54:41;;;;;;;;;;;;;;;12.14;100.00;99924.22;1735735;83;20144;-75
2022/05/17 03:57:08;;;;;;;;;;;;;;;12.21;100.00;99924.86;1736082;83;20137;-74
2022/05/17 03:59:36;;;;;;;;;;;;;;;12.23;100.00;99922.27;1735768;83;20121;-74
2022/05/17 04:02:04;;;;;;;;;;;;;;;12.25;100.00;99922.09;1735779;83;20158;-76
2022/05/17 04:04:32;;;;;;;;;;;;;;;12.28;100.00;99923.92;1735793;83;20125;-75
2022/05/17 04:07:00;;;;;;;;;;;;;;;12.33;100.00;99920.67;1735658;83;20132;-75
2022/05/17 04:09:29;;;;;;;;;;;;;;;12.39;100.00;99923.14;1735439;83;20183;-75
2022/05/17 04:11:56;;;;;;;;;;;;;;;12.42;100.00;99922.78;1735835;83;20164;-76
2022/05/17 04:14:23;;;;;;;;;;;;;;;12.45;100.00;99922.42;1735781;80;20164;-76
2022/05/17 04:16:50;;;;;;;;;;;;;;;12.48;100.00;99923.38;1735595;83;20125;-76
2022/05/17 04:19:18;;;;;;;;;;;;;;;12.48;100.00;99932.37;1715455;83;20157;-74
2022/05/17 04:21:47;;;;;;;;;;;;;;;12.57;100.00;99926.84;1735872;83;20181;-75
2022/05/17 04:24:14;;;;;;;;;;;;;;;12.69;100.00;99923.47;1736110;83;20492;-75
2022/05/17 04:26:42;;;;;;;;;;;;;;;12.86;100.00;99928.72;1735984;83;20149;-74
2022/05/17 04:29:10;;;;;;;;;;;;;;;12.99;100.00;99926.68;1736061;83;20129;-76
2022/05/17 04:31:37;;;;;;;;;;;;;;;13.06;100.00;99927.08;1734336;81;20125;-73
2022/05/17 04:34:04;;;;;;;;;;;;;;;13.10;100.00;99922.97;1731249;83;20153;-74
2022/05/17 04:36:32;;;;;;;;;;;;;;;13.20;100.00;99927.25;1731067;83;20105;-75
2022/05/17 04:38:59;;;;;;;;;;;;;;;13.34;100.00;99923.69;1731289;83;20112;-75
2022/05/17 04:41:26;;;;;;;;;;;;;;;13.54;100.00;99925.25;1731235;82;20128;-75
2022/05/17 04:43:53;;;;;;;;;;;;;;;13.81;100.00;99929.58;1731638;83;20143;-75
2022/05/17 04:46:21;;;;;;;;;;;;;;;14.04;100.00;99934.80;1731112;83;20125;-76
2022/05/17 04:48:50;;;;;;;;;;;;;;;14.15;100.00;99934.28;1731354;83;20434;-74
2022/05/17 04:51:16;;;;;;;;;;;;;;;14.19;100.00;99928.76;1731332;83;20168;-75
2022/05/17 04:53:43;;;;;;;;;;;;;;;14.26;100.00;99933.42;1731452;82;20097;-76
2022/05/17 04:56:12;;;;;;;;;;;;;;;14.35;100.00;99930.34;1730932;83;20101;-74
2022/05/17 04:58:40;;;;;;;;;;;;;;;14.50;98.78;99931.61;1731429;83;20106;-75
2022/05/17 05:01:07;;;;;;;;;;;;;;;14.56;96.00;99926.72;1731411;82;20108;-75
2022/05/17 05:03:34;;;;;;;;;;;;;;;14.74;98.14;99928.94;1721762;83;20173;-74
2022/05/17 05:06:01;;;;;;;;;;;;;;;14.98;96.37;99928.14;1736286;83;20157;-75
2022/05/17 05:08:29;;;;;;;;;;;;;;;15.18;95.63;99929.56;1728947;81;20432;-76
2022/05/17 05:10:56;;;;;;;;;;;;;;;15.35;94.51;99919.13;1696472;84;20199;-74
2022/05/17 05:13:26;;;;;;;;;;;;;;;15.48;89.62;99924.63;1724365;83;20485;-75
2022/05/17 05:15:56;;;;;;;;;;;;;;;15.59;90.63;99920.98;1741638;82;20154;-77
2022/05/17 05:18:23;;;;;;;;;;;;;;;15.74;87.92;99921.62;1744622;82;20138;-76
2022/05/17 05:20:51;;;;;;;;;;;;;;;15.94;83.03;99917.06;1748068;81;20168;-75
2022/05/17 05:23:18;;;;;;;;;;;;;;;16.19;80.54;99916.97;1739611;81;20209;-74
2022/05/17 05:25:45;;;;;;;;;;;;;;;16.33;76.45;99912.64;1744987;82;20125;-74
2022/05/17 05:28:12;;;;;;;;;;;;;;;16.45;76.43;99907.38;1760295;81;20129;-73
2022/05/17 05:30:38;;;;;;;;;;;;;;;16.62;72.14;99915.94;1758779;81;20121;-76
2022/05/17 05:33:06;;;;;;;;;;;;;;;16.77;68.77;99906.66;1718720;83;20115;-75
2022/05/17 05:35:33;;;;;;;;;;;;;;;16.95;66.73;99915.05;1718615;83;20134;-73
2022/05/17 05:38:02;;;;;;;;;;;;;;;17.17;65.34;99904.63;1719039;83;20397;-73
2022/05/17 05:40:33;;;;;;;;;;;;;;;17.39;65.07;99905.16;1691281;83;20097;-76
2022/05/17 05:42:59;;;;;;;;;;;;;;;17.60;61.87;99905.86;1726717;83;20115;-76
2022/05/17 05:45:26;;;;;;;;;;;;;;;17.79;60.91;99899.41;1719154;83;20111;-75
2022/05/17 05:47:55;;;;;;;;;;;;;;;17.89;57.41;99899.50;1723429;83;20120;-74
2022/05/17 05:50:22;;;;;;;;;;;;;;;17.91;56.21;99901.48;1644636;86;20137;-76
2022/05/17 05:52:50;;;;;;;;;;;;;;;17.93;52.70;99911.13;1648220;86;20260;-75
2022/05/17 05:55:20;;;;;;;;;;;;;;;17.87;52.91;99901.09;1638462;86;20163;-74
2022/05/17 05:57:46;;;;;;;;;;;;;;;17.76;51.73;99901.75;1642957;87;20131;-77
2022/05/17 06:00:16;;;;;;;;;;;;;;;17.72;52.42;99906.83;1633232;87;20127;-72
2022/05/17 06:02:43;;;;;;;;;;;;;;;17.82;53.36;99904.45;1677932;85;20116;-72
2022/05/17 06:05:11;;;;;;;;;;;;;;;17.86;51.20;99901.31;1683334;84;20097;-74
2022/05/17 06:07:40;;;;;;;;;;;;;;;17.86;52.64;99901.31;1712631;83;20127;-74
2022/05/17 06:10:08;;;;;;;;;;;;;;;18.07;53.56;99902.28;1714507;83;20154;-76
2022/05/17 06:12:36;;;;;;;;;;;;;;;18.26;53.93;99899.07;1709538;83;20131;-76
2022/05/17 06:15:04;;;;;;;;;;;;;;;18.42;51.32;99895.45;1710750;83;20125;-77
2022/05/17 06:17:33;;;;;;;;;;;;;;;18.56;53.70;99894.25;1719016;83;20136;-77
2022/05/17 06:20:00;;;;;;;;;;;;;;;18.88;53.00;99891.39;1719179;83;20133;-73
2022/05/17 06:22:27;;;;;;;;;;;;;;;19.15;50.74;99891.34;1716285;83;20207;-74
2022/05/17 06:24:54;;;;;;;;;;;;;;;19.30;49.62;99890.09;1718328;83;20132;-75
2022/05/17 06:27:21;;;;;;;;;;;;;;;19.46;48.14;99892.70;1713382;83;20128;-73
2022/05/17 06:29:48;;;;;;;;;;;;;;;19.51;46.41;99892.84;1701864;84;20107;-78
2022/05/17 06:32:15;;;;;;;;;;;;;;;19.44;45.67;99890.23;1692172;83;20138;-75
2022/05/17 06:34:45;;;;;;;;;;;;;;;19.52;46.17;99889.05;1656522;85;20133;-75
2022/05/17 06:37:12;;;;;;;;;;;;;;;19.67;45.68;99893.58;1687294;85;20111;-73
2022/05/17 06:39:39;;;;;;;;;;;;;;;19.87;45.45;99893.83;1656364;87;20425;-74
2022/05/17 06:42:07;;;;;;;;;;;;;;;19.86;44.31;99890.77;1705514;83;20135;-75
2022/05/17 06:44:37;;;;;;;;;;;;;;;19.85;43.81;99891.86;1723313;83;20129;-78
2022/05/17 06:47:05;;;;;;;;;;;;;;;19.77;42.62;99879.84;1729783;83;20132;-77
2022/05/17 06:49:32;;;;;;;;;;;;;;;19.59;42.38;99881.55;1729674;83;20101;-76
2022/05/17 06:52:03;;;;;;;;;;;;;;;19.40;43.04;99884.06;1713834;84;20131;-73
2022/05/17 06:54:31;;;;;;;;;;;;;;;19.33;44.31;99880.86;1750104;82;20396;-75
2022/05/17 06:56:59;;;;;;;;;;;;;;;19.40;44.24;99872.55;1750434;82;20104;-76
2022/05/17 06:59:26;;;;;;;;;;;;;;;19.55;44.11;99877.63;1725937;82;20138;-74
2022/05/17 07:01:53;;;;;;;;;;;;;;;19.64;43.99;99874.01;1721964;82;20103;-72
2022/05/17 07:04:20;;;;;;;;;;;;;;;19.82;45.10;99875.86;1750114;82;20127;-76
2022/05/17 07:06:48;;;;;;;;;;;;;;;20.08;44.69;99874.05;1727332;82;20414;-78
2022/05/17 07:09:16;;;;;;;;;;;;;;;20.29;43.80;99863.52;1689610;85;20135;-74
2022/05/17 07:14:29;;;;;;;;;;;;;;;20.18;44.64;99876.18;1689472;85;20429;-74
2022/05/17 07:16:56;;;;;;;;;;;;;;;20.33;44.60;99875.72;1668883;85;20190;-73
2022/05/17 07:19:23;;;;;;;;;;;;;;;20.58;44.47;99874.62;1668731;86;20144;-74
2022/05/17 07:21:50;;;;;;;;;;;;;;;20.71;43.23;99868.88;1668387;86;20411;-75
2022/05/17 07:24:19;;;;;;;;;;;;;;;20.87;43.77;99865.92;1668870;86;20161;-74
2022/05/17 07:26:46;;;;;;;;;;;;;;;21.11;43.31;99861.19;1668747;86;20118;-76
2022/05/17 07:29:13;;;;;;;;;;;;;;;21.34;43.54;99856.13;1668477;86;20106;-76
2022/05/17 07:31:40;;;;;;;;;;;;;;;21.64;43.00;99852.81;1684247;84;20134;-75
2022/05/17 07:34:06;;;;;;;;;;;;;;;21.73;42.21;99851.34;1703494;83;20445;-76
2022/05/17 07:36:33;;;;;;;;;;;;;;;21.90;41.84;99849.44;1729837;82;20160;-76
2022/05/17 07:39:00;;;;;;;;;;;;;;;22.09;42.88;99846.41;1732035;82;20154;-74
2022/05/17 07:41:27;;;;;;;;;;;;;;;22.04;40.61;99847.15;1730275;82;20147;-76
2022/05/17 07:43:54;;;;;;;;;;;;;;;21.77;40.62;99841.50;1730204;83;20175;-75
2022/05/17 07:46:21;;;;;;;;;;;;;;;21.51;41.40;99848.47;1729606;82;20123;-73
2022/05/17 07:48:48;;;;;;;;;;;;;;;21.45;42.18;99846.14;1729593;83;20356;-76
2022/05/17 07:51:15;;;;;;;;;;;;;;;21.65;43.21;99848.44;1728633;82;20931;-74
2022/05/17 07:53:41;;;;;;;;;;;;;;;22.02;41.97;99857.58;1729285;82;20124;-75
2022/05/17 07:56:09;;;;;;;;;;;;;;;22.31;41.48;99854.73;1728577;82;20419;-75
2022/05/17 07:58:36;;;;;;;;;;;;;;;22.41;40.45;99853.52;1728947;82;20191;-75
2022/05/17 08:01:04;;;;;;;;;;;;;;;21.93;39.42;99864.59;1728818;82;20480;-76
2022/05/17 08:03:31;;;;;;;;;;;;;;;21.36;39.83;99857.26;1728638;82;20174;-75
2022/05/17 08:05:57;;;;;;;;;;;;;;;21.18;40.78;99855.00;1729503;83;20180;-75
2022/05/17 08:08:25;;;;;;;;;;;;;;;21.31;42.00;99846.16;1728899;83;20195;-77
2022/05/17 08:10:53;;;;;;;;;;;;;;;21.68;42.50;99852.62;1729979;83;20167;-76
2022/05/17 08:13:22;;;;;;;;;;;;;;;22.15;43.22;99848.99;1729647;82;20432;-73
2022/05/17 08:15:51;;;;;;;;;;;;;;;22.40;41.90;99852.38;1730130;82;20124;-75
2022/05/17 08:18:18;;;;;;;;;;;;;;;22.46;41.96;99857.72;1726207;82;20123;-73
2022/05/17 08:20:46;;;;;;;;;;;;;;;22.48;40.85;99853.34;1739405;82;20158;-77
2022/05/17 08:23:14;;;;;;;;;;;;;;;22.32;39.61;99849.53;1740859;82;20171;-75
2022/05/17 08:28:26;;;;;;;;;;;;;;;22.23;40.67;99847.72;1726917;82;20143;-76
2022/05/17 08:30:53;;;;;;;;;;;;;;;22.62;41.58;99840.03;1743598;81;20135;-75
2022/05/17 08:33:23;;;;;;;;;;;;;;;22.69;40.01;99834.60;1754670;81;20163;-76
2022/05/17 08:35:53;;;;;;;;;;;;;;;22.55;40.50;99838.28;1754506;81;20135;-75
2022/05/17 08:38:25;;;;;;;;;;;;;;;22.56;40.05;99844.09;1754094;81;20141;-74
2022/05/17 08:41:28;;;;;;;;;;;;;;;22.41;39.38;99826.52;1696732;83;20189;-76
2022/05/17 08:44:03;;;;;;;;;;;;;;;22.45;41.09;99820.26;1694080;83;20173;-78
2022/05/17 08:46:51;;;;;;;;;;;;;;;22.72;40.42;99828.59;1697180;84;20161;-77
2022/05/17 08:49:26;;;;;;;;;;;;;;;22.67;38.47;99831.27;1651934;86;20189;-75
2022/05/17 08:52:01;;;;;;;;;;;;;;;22.35;38.80;99824.24;1651974;86;20420;-77
2022/05/17 08:54:40;;;;;;;;;;;;;;;22.23;39.24;99820.18;1625659;88;20109;-77
2022/05/17 08:57:30;;;;;;;;;;;;;;;22.09;38.75;99814.19;1612604;89;20131;-78
2022/05/17 09:00:02;;;;;;;;;;;;;;;21.75;38.91;99823.03;1613425;88;20400;-76
2022/05/17 09:02:47;;;;;;;;;;;;;;;21.52;39.57;99813.02;1646770;86;20414;-74
2022/05/17 09:05:33;;;;;;;;;;;;;;;21.27;39.97;99810.08;1620969;87;20179;-76
2022/05/17 09:08:15;;;;;;;;;;;;;;;20.94;40.74;99822.64;1644084;86;21964;-75
2022/05/17 09:10:49;;;;;;;;;;;;;;;21.03;42.02;99817.07;1624958;87;20119;-77
2022/05/17 09:13:23;;;;;;;;;;;;;;;21.40;40.37;99808.92;1652447;85;20116;-77
2022/05/17 09:15:51;;;;;;;;;;;;;;;21.91;39.80;99802.92;1662207;86;20148;-74
2022/05/17 09:18:18;;;;;;;;;;;;;;;22.45;39.55;99800.12;1697006;83;20142;-75
2022/05/17 09:20:45;;;;;;;;;;;;;;;22.69;37.12;99801.53;1734456;83;20153;-76
2022/05/17 09:23:12;;;;;;;;;;;;;;;22.86;36.37;99798.71;1734664;83;20114;-73
2022/05/17 09:26:00;;;;;;;;;;;;;;;22.78;35.01;99792.27;1734305;83;20430;-73
2022/05/17 09:28:29;;;;;;;;;;;;;;;22.79;36.30;99795.84;1735449;83;20147;-72
2022/05/17 09:31:15;;;;;;;;;;;;;;;22.84;34.61;99794.53;1735603;83;20153;-75
2022/05/17 09:33:42;;;;;;;;;;;;;;;22.60;35.39;99796.19;1734661;83;20130;-77
2022/05/17 09:36:11;;;;;;;;;;;;;;;22.48;35.63;99809.26;1734928;83;20102;-76
2022/05/17 09:38:38;;;;;;;;;;;;;;;22.42;36.64;99791.02;1731335;83;20103;-75
2022/05/17 09:41:06;;;;;;;;;;;;;;;22.61;36.71;99788.23;1734372;83;20098;-76
2022/05/17 09:43:43;;;;;;;;;;;;;;;22.88;37.46;99789.63;1734664;83;20139;-77
2022/05/17 09:46:12;;;;;;;;;;;;;;;22.95;35.71;99789.44;1650893;87;20135;-78
2022/05/17 09:54:32;;;;;;;;;;;;;;;22.14;36.62;99795.00;1648658;87;20153;-75
2022/05/17 09:57:23;;;;;;;;;;;;;;;21.80;36.10;99795.05;1648896;87;20101;-76
2022/05/17 09:59:55;;;;;;;;;;;;;;;21.33;37.70;99780.20;1648853;87;20148;-75
2022/05/17 10:05:01;;;;;;;;;;;;;;;21.25;40.02;99786.13;1606306;89;20109;-74
2022/05/17 10:07:29;;;;;;;;;;;;;;;21.59;39.33;99781.50;1605923;89;20109;-74
2022/05/17 10:09:56;;;;;;;;;;;;;;;21.99;39.12;99786.50;1620570;88;20110;-78
2022/05/17 10:12:27;;;;;;;;;;;;;;;22.38;39.14;99790.66;1619838;88;20101;-76
2022/05/17 10:14:56;;;;;;;;;;;;;;;22.80;39.32;99780.98;1618825;88;20142;-74
2022/05/17 10:17:55;;;;;;;;;;;;;;;22.98;37.89;99780.63;1603600;89;20114;-75
2022/05/17 10:20:31;;;;;;;;;;;;;;;22.86;37.17;99787.69;1607775;89;20110;-74
2022/05/17 10:23:22;;;;;;;;;;;;;;;22.61;37.13;99794.27;1628253;86;20260;-74
2022/05/17 10:25:53;;;;;;;;;;;;;;;22.12;37.14;99790.29;1648652;86;20113;-76
2022/05/17 10:28:33;;;;;;;;;;;;;;;21.55;39.28;99781.72;1645173;86;20105;-76
2022/05/17 10:31:24;;;;;;;;;;;;;;;21.58;40.46;99783.98;1629082;86;20143;-76
2022/05/17 10:34:11;;;;;;;;;;;;;;;21.52;40.57;99779.45;1643509;86;20397;-75
2022/05/17 10:36:47;;;;;;;;;;;;;;;21.43;40.66;99783.68;1634476;86;20191;-78
2022/05/17 10:39:17;;;;;;;;;;;;;;;21.65;41.67;99779.66;1647711;86;20115;-75
2022/05/17 10:41:46;;;;;;;;;;;;;;;22.08;41.14;99778.13;1654564;86;20165;-77
2022/05/17 10:44:15;;;;;;;;;;;;;;;22.36;42.05;99772.18;1639320;86;20272;-76
2022/05/17 10:46:48;;;;;;;;;;;;;;;22.64;41.63;99760.69;1560241;90;20129;-76
2022/05/17 10:49:16;;;;;;;;;;;;;;;22.84;39.00;99761.45;1592118;90;21088;-78
2022/05/17 10:51:46;;;;;;;;;;;;;;;22.89;38.21;99755.45;1592087;90;20145;-77
2022/05/17 10:54:33;;;;;;;;;;;;;;;22.96;39.30;99750.29;1592460;90;20635;-77
2022/05/17 10:57:13;;;;;;;;;;;;;;;23.10;39.35;99742.73;1592338;90;20444;-75
2022/05/17 11:00:02;;;;;;;;;;;;;;;23.45;37.11;99744.15;1569826;90;20442;-77
2022/05/17 11:02:56;;;;;;;;;;;;;;;23.43;36.93;99742.77;1627949;86;20094;-75
2022/05/17 11:05:26;;;;;;;;;;;;;;;23.38;36.20;99746.86;1713118;83;20429;-78
2022/05/17 11:08:09;;;;;;;;;;;;;;;22.92;33.79;99749.98;1720399;83;20167;-75
2022/05/17 11:10:43;;;;;;;;;;;;;;;22.40;34.70;99748.56;1720145;83;20137;-77
2022/05/17 11:13:31;;;;;;;;;;;;;;;22.37;34.61;99734.75;1721095;83;20138;-77
2022/05/17 11:16:08;;;;;;;;;;;;;;;22.54;34.88;99742.09;1722554;83;20146;-78
2022/05/17 11:18:52;;;;;;;;;;;;;;;22.67;35.15;99729.87;1739264;81;20113;-77
2022/05/17 11:21:32;;;;;;;;;;;;;;;22.77;35.47;99717.59;1766488;81;20208;-70
2022/05/17 11:24:18;;;;;;;;;;;;;;;22.84;33.00;99722.34;1764843;81;20425;-69
2022/05/17 11:26:52;;;;;;;;;;;;;;;22.86;32.83;99716.54;1762853;81;20129;-69
2022/05/17 11:29:56;;;;;;;;;;;;;;;22.87;32.43;99720.98;1763025;81;20125;-71
2022/05/17 11:32:27;;;;;;;;;;;;;;;22.80;32.01;99712.09;1743367;81;20182;-70
2022/05/17 11:34:56;;;;;;;;;;;;;;;22.71;32.10;99708.41;1735735;83;20123;-68
2022/05/17 11:37:38;;;;;;;;;;;;;;;22.93;33.68;99708.37;1757498;81;20125;-69
2022/05/17 11:40:10;;;;;;;;;;;;;;;23.17;32.52;99698.95;1766175;81;20136;-68
2022/05/17 11:43:40;;;;;;;;;;;;;;;23.40;33.15;99708.80;1765939;81;20141;-69
2022/05/17 11:45:22;;;;;;;;;;;;;;;23.36;31.31;99698.84;1763228;81;20551;-70
2022/05/17 11:47:55;;;;;;;;;;;;;;;23.40;31.83;99701.34;1716534;84;20094;-68
2022/05/17 11:50:32;;;;;;;;;;;;;;;23.50;32.26;99705.56;1717091;83;20390;-71
2022/05/17 11:53:27;;;;;;;;;;;;;;;23.72;32.22;99701.84;1705600;84;20103;-71
2022/05/17 11:56:22;;;;;;;;;;;;;;;23.91;30.27;99691.23;1705717;84;20130;-72
2022/05/17 11:58:52;;;;;;;;;;;;;;;23.74;30.73;99701.02;1702649;84;20115;-69
2022/05/17 12:01:31;;;;;;;;;;;;;;;23.91;30.84;99685.70;1658058;85;20426;-69
2022/05/17 12:04:00;;;;;;;;;;;;;;;24.01;30.73;99687.67;1615306;89;20453;-72
2022/05/17 12:06:52;;;;;;;;;;;;;;;23.98;30.68;99685.47;1656663;87;20131;-76
2022/05/17 12:09:22;;;;;;;;;;;;;;;23.97;30.62;99679.66;1656468;87;20126;-78
2022/05/17 12:14:56;;;;;;;;;;;;;;;23.55;29.69;99677.19;1604137;90;20147;-76
2022/05/17 12:17:28;;;;;;;;;;;;;;;22.86;30.86;99682.94;1604053;89;20111;-74
2022/05/17 12:20:17;;;;;;;;;;;;;;;22.47;31.61;99683.61;1595289;90;20188;-77
2022/05/17 12:22:59;;;;;;;;;;;;;;;22.37;32.99;99673.33;1593983;90;20154;-75
2022/05/17 12:25:35;;;;;;;;;;;;;;;22.59;32.48;99670.52;1594708;89;20110;-76
2022/05/17 12:28:02;;;;;;;;;;;;;;;22.82;32.99;99669.38;1569134;91;20223;-77
2022/05/17 12:33:18;;;;;;;;;;;;;;;22.90;32.77;99661.20;1617564;89;20141;-77
2022/05/17 12:35:46;;;;;;;;;;;;;;;23.05;32.65;99651.69;1617111;89;20221;-76
2022/05/17 12:43:50;;;;;;;;;;;;;;;23.38;32.78;99651.69;1624511;87;20110;-75
2022/05/17 12:46:22;;;;;;;;;;;;;;;23.77;33.47;99657.71;1653692;87;20111;-77
2022/05/17 12:48:50;;;;;;;;;;;;;;;24.02;32.35;99642.41;1653909;87;20167;-76
2022/05/17 12:51:20;;;;;;;;;;;;;;;24.04;31.93;99644.34;1653446;87;20095;-71
2022/05/17 12:53:58;;;;;;;;;;;;;;;23.85;31.00;99639.83;1653218;87;20099;-74
2022/05/17 12:56:30;;;;;;;;;;;;;;;23.41;31.32;99635.43;1653458;87;20162;-75
2022/05/17 12:59:01;;;;;;;;;;;;;;;22.87;31.87;99641.04;1679084;85;20097;-76
2022/05/17 13:01:34;;;;;;;;;;;;;;;22.35;33.15;99644.66;1684106;85;20710;-75
2022/05/17 13:04:10;;;;;;;;;;;;;;;21.94;34.03;99646.08;1684452;85;20108;-76
2022/05/17 13:06:46;;;;;;;;;;;;;;;21.86;36.06;99630.83;1627651;88;21039;-76
2022/05/17 13:09:19;;;;;;;;;;;;;;;22.15;35.20;99632.00;1628225;88;20447;-76
2022/05/17 13:11:46;;;;;;;;;;;;;;;22.19;33.92;99629.03;1660437;86;20181;-75
2022/05/17 13:14:27;;;;;;;;;;;;;;;22.10;34.25;99637.47;1640762;86;20107;-75
2022/05/17 13:16:58;;;;;;;;;;;;;;;21.95;34.31;99627.91;1641152;88;20213;-76
2022/05/17 13:19:25;;;;;;;;;;;;;;;21.83;34.92;99627.20;1641139;88;20135;-75
2022/05/17 13:21:52;;;;;;;;;;;;;;;21.69;34.46;99629.52;1635049;88;20141;-75
2022/05/17 13:24:32;;;;;;;;;;;;;;;21.70;35.70;99624.28;1633886;87;20120;-76